Aberdeen, Pennsylvania
Current Conditions -  °F | °C
As of 12:56 AM on Saturday 25 Oct 2014 (Local Time) from KMDT Reporting Station
Few Clouds Few Clouds  
Wind Chill: 51°   Ceiling: Unl
Heat Index: 51°   Visibility: 10mi
Dew Point: 39°   Wind: 9mph
Humidity: 63%   Direction: 330°NNW
Pressure: 29.93"   Gusts: NA
Location:  40.1674°N, 76.6045°W
Report Text: KMDT 250456Z 33008KT 10SM FEW220 11/04 A2993 RMK AO2 SLP136 T01060039 401890100
Loading
Personal Weather Stations






























Interactive Weather Map New forecast layout! Learn more

10-Day Weather Forecast

Advertisements
Track Severe Weather on mobile